Time;durP1;ratioP1;P1;durP2;ratioP2;P2;SDS_P1;SDS_P2;PMS_P1;PMS_P2;Temp;Humidity;BMP_temperature;BMP_pressure;BME280_temperature;BME280_humidity;BME280_pressure;Samples;Min_cycle;Max_cycle;Signal;HPM_P1;HPM_P2
2023/09/12 00:01:12;;;;;;;19.48;17.65;;;;;;;;;;5281957;28;20027;-72
2023/09/12 00:03:43;;;;;;;18.95;17.15;;;;;;;;;;5280646;28;20451;-72
2023/09/12 00:06:14;;;;;;;20.25;18.25;;;;;;;;;;5282342;28;20094;-72
2023/09/12 00:08:45;;;;;;;20.07;17.97;;;;;;;;;;5281299;28;20094;-71
2023/09/12 00:11:17;;;;;;;20.98;18.88;;;;;;;;;;5281414;28;20302;-71
2023/09/12 00:13:48;;;;;;;20.25;18.38;;;;;;;;;;5281171;28;20352;-71
2023/09/12 00:16:19;;;;;;;19.37;17.67;;;;;;;;;;5281619;28;20027;-71
2023/09/12 00:18:51;;;;;;;19.63;17.73;;;;;;;;;;5280340;28;20258;-72
2023/09/12 00:21:22;;;;;;;20.13;18.10;;;;;;;;;;5281511;28;20031;-71
2023/09/12 00:23:53;;;;;;;20.88;18.83;;;;;;;;;;5280815;28;20384;-71
2023/09/12 00:26:24;;;;;;;20.13;18.33;;;;;;;;;;5280355;28;20036;-72
2023/09/12 00:28:55;;;;;;;19.80;18.00;;;;;;;;;;5282285;28;20661;-71
2023/09/12 00:31:27;;;;;;;20.27;18.27;;;;;;;;;;5287425;28;20262;-71
2023/09/12 00:33:58;;;;;;;21.55;19.20;;;;;;;;;;5288106;28;20103;-71
2023/09/12 00:36:29;;;;;;;18.77;17.07;;;;;;;;;;5287921;28;20058;-71
2023/09/12 00:39:00;;;;;;;20.35;18.25;;;;;;;;;;5287565;28;20746;-71
2023/09/12 00:41:31;;;;;;;20.67;18.57;;;;;;;;;;5287931;28;20066;-72
2023/09/12 00:44:03;;;;;;;21.33;17.83;;;;;;;;;;5288267;28;20322;-72
2023/09/12 00:46:34;;;;;;;22.42;20.25;;;;;;;;;;5286983;28;20632;-72
2023/09/12 00:49:07;;;;;;;21.75;19.02;;;;;;;;;;5288368;28;20016;-72
2023/09/12 00:51:38;;;;;;;20.90;19.02;;;;;;;;;;5287877;28;20042;-72
2023/09/12 00:54:10;;;;;;;20.55;18.45;;;;;;;;;;5287567;28;20016;-71
2023/09/12 00:56:41;;;;;;;19.65;17.73;;;;;;;;;;5287806;28;20463;-72
2023/09/12 00:59:15;;;;;;;20.27;18.33;;;;;;;;;;5288316;28;20024;-71
2023/09/12 01:01:47;;;;;;;19.17;17.27;;;;;;;;;;5287162;28;20019;-72
2023/09/12 01:04:18;;;;;;;18.77;16.98;;;;;;;;;;5288568;28;20032;-72
2023/09/12 01:06:51;;;;;;;19.17;17.38;;;;;;;;;;5287055;28;20020;-71
2023/09/12 01:09:22;;;;;;;19.65;17.70;;;;;;;;;;5288009;28;20048;-71
2023/09/12 01:11:54;;;;;;;17.90;16.25;;;;;;;;;;5287712;28;20074;-72
2023/09/12 01:14:25;;;;;;;19.60;17.70;;;;;;;;;;5287157;28;20024;-72
2023/09/12 01:16:57;;;;;;;19.20;17.30;;;;;;;;;;5288113;28;20058;-72
2023/09/12 01:19:28;;;;;;;18.17;16.27;;;;;;;;;;5287939;28;20340;-72
2023/09/12 01:22:00;;;;;;;18.65;16.95;;;;;;;;;;5287085;28;20075;-71
2023/09/12 01:24:32;;;;;;;18.63;16.63;;;;;;;;;;5287365;28;20024;-72
2023/09/12 01:27:21;;;;;;;18.77;16.87;;;;;;;;;;5288175;28;20306;-71
2023/09/12 01:30:00;;;;;;;16.73;15.15;;;;;;;;;;5287004;28;20270;-71
2023/09/12 01:32:32;;;;;;;17.65;15.90;;;;;;;;;;5287420;28;20021;-71
2023/09/12 01:35:03;;;;;;;18.67;16.27;;;;;;;;;;5287169;28;20382;-71
2023/09/12 01:37:35;;;;;;;18.40;16.52;;;;;;;;;;5287317;28;20043;-72
2023/09/12 01:40:06;;;;;;;17.87;16.07;;;;;;;;;;5288144;28;20032;-71
2023/09/12 01:42:39;;;;;;;19.70;16.83;;;;;;;;;;5281781;28;20291;-72
2023/09/12 01:45:17;;;;;;;17.75;16.15;;;;;;;;;;5284414;28;20024;-72
2023/09/12 01:47:49;;;;;;;19.55;17.55;;;;;;;;;;5284225;28;20024;-71
2023/09/12 01:50:21;;;;;;;18.52;16.85;;;;;;;;;;5283973;28;20027;-71
2023/09/12 01:52:53;;;;;;;18.48;16.77;;;;;;;;;;5284152;28;20074;-71
2023/09/12 01:55:24;;;;;;;19.10;16.38;;;;;;;;;;5284098;28;20379;-72
2023/09/12 01:57:57;;;;;;;18.15;15.20;;;;;;;;;;5282772;28;20061;-71
2023/09/12 02:00:29;;;;;;;16.95;15.15;;;;;;;;;;5283925;28;20103;-72
2023/09/12 02:03:01;;;;;;;19.13;16.55;;;;;;;;;;5283180;28;20131;-71
2023/09/12 02:05:33;;;;;;;17.90;16.10;;;;;;;;;;5283400;28;20016;-72
2023/09/12 02:08:04;;;;;;;16.40;14.70;;;;;;;;;;5283784;28;20459;-72
2023/09/12 02:10:36;;;;;;;17.73;16.05;;;;;;;;;;5282478;28;20399;-72
2023/09/12 02:13:07;;;;;;;18.45;15.98;;;;;;;;;;5284056;28;20024;-72
2023/09/12 02:15:38;;;;;;;19.20;16.05;;;;;;;;;;5283295;28;20104;-71
2023/09/12 02:18:09;;;;;;;17.07;15.50;;;;;;;;;;5282859;28;20078;-71
2023/09/12 02:20:41;;;;;;;16.85;15.30;;;;;;;;;;5283091;28;20327;-72
2023/09/12 02:23:12;;;;;;;17.38;15.73;;;;;;;;;;5284006;28;20113;-72
2023/09/12 02:25:43;;;;;;;17.27;15.68;;;;;;;;;;5282410;28;20052;-71
2023/09/12 02:28:14;;;;;;;16.53;14.83;;;;;;;;;;5283793;28;20407;-71
2023/09/12 02:30:46;;;;;;;16.50;14.80;;;;;;;;;;5282822;28;20281;-72
2023/09/12 02:33:17;;;;;;;15.57;14.00;;;;;;;;;;5282907;28;20263;-71
2023/09/12 02:35:48;;;;;;;16.25;13.95;;;;;;;;;;5281406;28;20493;-71
2023/09/12 02:38:19;;;;;;;16.43;14.77;;;;;;;;;;5282510;28;20020;-72
2023/09/12 02:40:50;;;;;;;16.77;14.07;;;;;;;;;;5282759;28;20289;-72
2023/09/12 02:43:22;;;;;;;13.82;12.27;;;;;;;;;;5283354;28;20290;-71
2023/09/12 02:45:53;;;;;;;13.55;12.02;;;;;;;;;;5281749;28;20013;-72
2023/09/12 02:48:24;;;;;;;14.70;13.13;;;;;;;;;;5283289;28;20063;-72
2023/09/12 02:50:55;;;;;;;13.15;11.93;;;;;;;;;;5283487;28;20269;-71
2023/09/12 02:53:28;;;;;;;14.17;12.73;;;;;;;;;;5282321;28;20052;-72
2023/09/12 02:55:59;;;;;;;14.82;13.32;;;;;;;;;;5283182;28;20263;-72
2023/09/12 02:58:30;;;;;;;14.85;13.27;;;;;;;;;;5282759;28;20042;-72
2023/09/12 03:01:03;;;;;;;15.23;13.77;;;;;;;;;;5282682;28;20031;-72
2023/09/12 03:03:34;;;;;;;15.88;14.27;;;;;;;;;;5282471;28;20040;-72
2023/09/12 03:06:05;;;;;;;16.65;15.02;;;;;;;;;;5282185;28;20099;-71
2023/09/12 03:08:36;;;;;;;16.85;15.07;;;;;;;;;;5281952;28;20103;-71
2023/09/12 03:11:08;;;;;;;18.53;16.63;;;;;;;;;;5282766;28;20028;-72
2023/09/12 03:13:40;;;;;;;16.65;15.05;;;;;;;;;;5281310;28;20745;-72
2023/09/12 03:16:11;;;;;;;16.55;14.88;;;;;;;;;;5282717;28;20062;-71
2023/09/12 03:18:42;;;;;;;16.52;14.70;;;;;;;;;;5281926;28;20378;-72
2023/09/12 03:21:14;;;;;;;16.07;14.37;;;;;;;;;;5281548;28;20100;-71
2023/09/12 03:23:45;;;;;;;16.35;14.75;;;;;;;;;;5281920;28;20295;-72
2023/09/12 03:26:16;;;;;;;15.73;14.13;;;;;;;;;;5282423;28;20024;-72
2023/09/12 03:28:49;;;;;;;15.97;14.47;;;;;;;;;;5280849;28;20263;-72
2023/09/12 03:31:20;;;;;;;14.77;13.38;;;;;;;;;;5282399;28;20633;-72
2023/09/12 03:33:51;;;;;;;14.20;12.93;;;;;;;;;;5281592;28;20036;-71
2023/09/12 03:36:22;;;;;;;13.70;12.50;;;;;;;;;;5281506;28;20016;-72
2023/09/12 03:38:54;;;;;;;15.77;14.18;;;;;;;;;;5281885;28;20385;-71
2023/09/12 03:41:26;;;;;;;16.25;13.40;;;;;;;;;;5281090;28;20123;-72
2023/09/12 03:43:57;;;;;;;14.85;13.45;;;;;;;;;;5281826;28;20024;-71
2023/09/12 03:46:28;;;;;;;14.98;13.63;;;;;;;;;;5281889;28;20320;-72
2023/09/12 03:49:00;;;;;;;14.50;13.10;;;;;;;;;;5281330;28;20062;-71
2023/09/12 03:51:31;;;;;;;13.95;12.60;;;;;;;;;;5281528;28;20290;-72
2023/09/12 03:54:02;;;;;;;15.30;13.70;;;;;;;;;;5282033;28;20016;-71
2023/09/12 03:56:33;;;;;;;14.95;13.55;;;;;;;;;;5280433;28;20020;-72
2023/09/12 03:59:04;;;;;;;13.98;12.48;;;;;;;;;;5281824;28;20357;-72
2023/09/12 04:01:36;;;;;;;14.13;12.77;;;;;;;;;;5281375;28;20142;-71
2023/09/12 04:04:07;;;;;;;15.88;12.48;;;;;;;;;;5280489;28;20291;-71
2023/09/12 04:06:38;;;;;;;13.53;12.23;;;;;;;;;;5281167;28;20009;-71
2023/09/12 04:09:09;;;;;;;12.63;11.43;;;;;;;;;;5281456;28;20381;-71
2023/09/12 04:11:41;;;;;;;13.53;12.13;;;;;;;;;;5280195;28;20278;-71
2023/09/12 04:14:13;;;;;;;13.20;12.00;;;;;;;;;;5281873;28;20634;-71
2023/09/12 04:16:44;;;;;;;13.27;11.90;;;;;;;;;;5280440;28;20271;-70
2023/09/12 04:19:16;;;;;;;13.43;12.02;;;;;;;;;;5281631;28;20073;-71
2023/09/12 04:21:47;;;;;;;13.25;11.88;;;;;;;;;;5280880;28;20012;-71
2023/09/12 04:24:18;;;;;;;14.17;12.27;;;;;;;;;;5281000;28;20169;-71
2023/09/12 04:26:49;;;;;;;12.75;11.45;;;;;;;;;;5281718;28;20286;-71
2023/09/12 04:29:20;;;;;;;13.00;11.53;;;;;;;;;;5281585;28;20082;-71
2023/09/12 04:31:56;;;;;;;11.93;10.50;;;;;;;;;;5280012;28;20263;-71
2023/09/12 04:34:27;;;;;;;15.13;12.35;;;;;;;;;;5281286;28;20275;-71
2023/09/12 04:36:58;;;;;;;14.90;12.20;;;;;;;;;;5281120;28;20021;-71
2023/09/12 04:39:29;;;;;;;13.82;11.90;;;;;;;;;;5280210;28;20287;-71
2023/09/12 04:42:01;;;;;;;12.15;11.00;;;;;;;;;;5281305;28;20027;-71
2023/09/12 04:44:36;;;;;;;13.57;11.80;;;;;;;;;;5280013;28;20426;-73
2023/09/12 04:47:07;;;;;;;12.77;11.40;;;;;;;;;;5281724;28;20059;-71
2023/09/12 04:49:39;;;;;;;14.57;12.48;;;;;;;;;;5280954;28;20044;-71
2023/09/12 04:52:10;;;;;;;12.82;11.48;;;;;;;;;;5280580;28;20096;-71
2023/09/12 04:54:41;;;;;;;13.63;12.23;;;;;;;;;;5280564;28;20020;-71
2023/09/12 04:57:13;;;;;;;13.60;12.38;;;;;;;;;;5281295;28;20637;-71
2023/09/12 04:59:44;;;;;;;17.58;12.25;;;;;;;;;;5279590;28;20017;-72
2023/09/12 05:02:16;;;;;;;16.27;13.10;;;;;;;;;;5281189;28;20384;-71
2023/09/12 05:04:47;;;;;;;13.60;12.10;;;;;;;;;;5280609;28;20028;-72
2023/09/12 05:07:18;;;;;;;14.05;12.73;;;;;;;;;;5280151;28;20023;-71
2023/09/12 05:09:49;;;;;;;14.40;13.10;;;;;;;;;;5280376;28;20036;-71
2023/09/12 05:12:20;;;;;;;14.70;13.27;;;;;;;;;;5280627;28;20025;-71
2023/09/12 05:14:52;;;;;;;15.17;13.57;;;;;;;;;;5279551;28;20464;-70
2023/09/12 05:17:23;;;;;;;19.80;14.63;;;;;;;;;;5284582;28;20270;-71
2023/09/12 05:19:54;;;;;;;15.18;13.77;;;;;;;;;;5283607;28;20077;-71
2023/09/12 05:22:25;;;;;;;14.45;12.95;;;;;;;;;;5284435;28;20486;-71
2023/09/12 05:24:56;;;;;;;16.00;14.50;;;;;;;;;;5284536;28;20032;-70
2023/09/12 05:27:28;;;;;;;17.75;15.35;;;;;;;;;;5283603;28;20282;-70
2023/09/12 05:29:59;;;;;;;17.35;15.38;;;;;;;;;;5284531;28;20385;-70
2023/09/12 05:32:31;;;;;;;17.27;15.47;;;;;;;;;;5283744;28;20013;-70
2023/09/12 05:35:02;;;;;;;17.92;15.57;;;;;;;;;;5284034;28;20274;-71
2023/09/12 05:37:34;;;;;;;16.70;15.00;;;;;;;;;;5283968;28;20070;-71
2023/09/12 05:40:06;;;;;;;17.15;14.85;;;;;;;;;;5284690;28;20107;-71
2023/09/12 05:42:37;;;;;;;18.63;15.63;;;;;;;;;;5283567;28;20038;-71
2023/09/12 05:45:08;;;;;;;19.23;17.17;;;;;;;;;;5284369;28;20060;-70
2023/09/12 05:47:40;;;;;;;20.92;16.10;;;;;;;;;;5283834;28;20104;-71
2023/09/12 05:50:11;;;;;;;17.85;16.08;;;;;;;;;;5283677;28;20043;-71
2023/09/12 05:52:42;;;;;;;20.48;17.20;;;;;;;;;;5284091;28;20753;-71
2023/09/12 05:55:14;;;;;;;18.83;16.13;;;;;;;;;;5283703;28;20023;-70
2023/09/12 05:57:45;;;;;;;18.63;16.13;;;;;;;;;;5283452;28;20262;-70
2023/09/12 06:00:16;;;;;;;20.25;15.90;;;;;;;;;;5284210;28;20103;-71
2023/09/12 06:02:47;;;;;;;19.40;17.23;;;;;;;;;;5283001;28;20479;-71
2023/09/12 06:05:19;;;;;;;18.85;16.75;;;;;;;;;;5284503;28;20073;-71
2023/09/12 06:07:50;;;;;;;17.67;15.82;;;;;;;;;;5283547;28;20045;-72
2023/09/12 06:10:21;;;;;;;18.50;16.13;;;;;;;;;;5283732;28;20052;-71
2023/09/12 06:12:53;;;;;;;20.37;17.87;;;;;;;;;;5283881;28;20020;-72
2023/09/12 06:15:24;;;;;;;19.45;17.33;;;;;;;;;;5283742;28;20277;-72
2023/09/12 06:17:55;;;;;;;21.80;17.80;;;;;;;;;;5282915;28;20052;-72
2023/09/12 06:20:26;;;;;;;18.63;16.70;;;;;;;;;;5283598;28;20025;-72
2023/09/12 06:22:59;;;;;;;17.15;15.35;;;;;;;;;;5282833;28;20021;-72
2023/09/12 06:25:30;;;;;;;17.90;16.10;;;;;;;;;;5283157;28;20029;-72
2023/09/12 06:28:01;;;;;;;21.17;15.02;;;;;;;;;;5282865;28;20013;-73
2023/09/12 06:30:33;;;;;;;17.95;16.10;;;;;;;;;;5282237;28;20033;-72
2023/09/12 06:33:04;;;;;;;16.88;15.27;;;;;;;;;;5283489;28;20027;-72
2023/09/12 06:35:36;;;;;;;17.40;15.52;;;;;;;;;;5282873;28;20021;-72
2023/09/12 06:38:07;;;;;;;18.13;16.42;;;;;;;;;;5282911;28;20408;-71
2023/09/12 06:40:38;;;;;;;17.60;15.80;;;;;;;;;;5283112;28;20047;-72
2023/09/12 06:43:10;;;;;;;18.10;16.17;;;;;;;;;;5283393;28;20289;-71
2023/09/12 06:45:41;;;;;;;18.55;16.55;;;;;;;;;;5277899;28;20267;-71
2023/09/12 06:48:12;;;;;;;18.50;16.65;;;;;;;;;;5282707;28;20055;-71
2023/09/12 06:50:43;;;;;;;16.67;15.00;;;;;;;;;;5282383;28;20021;-71
2023/09/12 06:53:14;;;;;;;23.63;18.25;;;;;;;;;;5282225;28;20278;-73
2023/09/12 06:55:46;;;;;;;18.27;16.48;;;;;;;;;;5282296;28;20388;-72
2023/09/12 06:58:17;;;;;;;17.85;16.05;;;;;;;;;;5282031;28;20193;-72
2023/09/12 07:00:48;;;;;;;19.60;17.57;;;;;;;;;;5281654;28;20035;-72
2023/09/12 07:03:19;;;;;;;20.88;16.17;;;;;;;;;;5283156;28;20286;-72
2023/09/12 07:05:50;;;;;;;20.67;17.02;;;;;;;;;;5281532;28;20024;-72
2023/09/12 07:08:22;;;;;;;19.27;17.27;;;;;;;;;;5282691;28;20453;-72
2023/09/12 07:10:54;;;;;;;19.90;17.80;;;;;;;;;;5282000;28;20313;-71
2023/09/12 07:13:26;;;;;;;22.98;17.10;;;;;;;;;;5281363;28;20463;-72
2023/09/12 07:15:57;;;;;;;25.98;18.65;;;;;;;;;;5282317;28;20031;-72
2023/09/12 07:18:28;;;;;;;20.55;18.55;;;;;;;;;;5282348;28;20035;-71
2023/09/12 07:21:00;;;;;;;21.55;18.23;;;;;;;;;;5281421;28;20017;-71
2023/09/12 07:23:32;;;;;;;22.35;18.35;;;;;;;;;;5281807;28;20021;-71
2023/09/12 07:26:03;;;;;;;20.70;17.60;;;;;;;;;;5282427;28;20032;-72
2023/09/12 07:28:34;;;;;;;24.13;18.67;;;;;;;;;;5280924;28;20017;-71
2023/09/12 07:31:05;;;;;;;20.27;18.10;;;;;;;;;;5282261;28;20215;-72
2023/09/12 07:33:37;;;;;;;21.13;18.83;;;;;;;;;;5281464;28;20783;-72
2023/09/12 07:36:08;;;;;;;20.05;17.90;;;;;;;;;;5282575;28;20266;-73
2023/09/12 07:38:39;;;;;;;24.23;19.33;;;;;;;;;;5281155;28;20119;-73
2023/09/12 07:41:10;;;;;;;21.90;19.30;;;;;;;;;;5281371;28;20267;-72
2023/09/12 07:43:42;;;;;;;20.40;18.35;;;;;;;;;;5281469;28;20032;-73
2023/09/12 07:46:13;;;;;;;20.90;18.80;;;;;;;;;;5282549;28;20070;-72
2023/09/12 07:48:44;;;;;;;20.87;18.00;;;;;;;;;;5281306;28;20020;-73
2023/09/12 07:51:17;;;;;;;20.40;18.25;;;;;;;;;;5282432;28;20275;-72
2023/09/12 07:53:48;;;;;;;20.55;18.33;;;;;;;;;;5281872;28;20066;-72
2023/09/12 07:56:20;;;;;;;22.75;19.17;;;;;;;;;;5282287;28;20008;-73
2023/09/12 07:58:51;;;;;;;18.40;16.52;;;;;;;;;;5283305;28;20075;-72
2023/09/12 08:01:23;;;;;;;20.63;18.52;;;;;;;;;;5281576;28;20036;-72
2023/09/12 08:03:55;;;;;;;17.08;15.50;;;;;;;;;;5281636;28;20025;-76
2023/09/12 08:06:26;;;;;;;20.50;15.93;;;;;;;;;;5281847;28;20100;-73
2023/09/12 08:08:58;;;;;;;17.73;15.93;;;;;;;;;;5280467;28;20053;-72
2023/09/12 08:11:29;;;;;;;16.17;14.48;;;;;;;;;;5281057;28;20024;-73
2023/09/12 08:14:00;;;;;;;14.87;13.37;;;;;;;;;;5281860;28;20442;-72
2023/09/12 08:16:31;;;;;;;14.67;13.20;;;;;;;;;;5280410;28;20267;-73
2023/09/12 08:19:03;;;;;;;15.57;14.10;;;;;;;;;;5281531;28;20020;-73
2023/09/12 08:21:34;;;;;;;16.75;13.48;;;;;;;;;;5280787;28;20024;-72
2023/09/12 08:24:05;;;;;;;15.40;13.73;;;;;;;;;;5280676;28;20142;-72
2023/09/12 08:26:37;;;;;;;13.63;12.13;;;;;;;;;;5280720;28;20575;-72
2023/09/12 08:29:08;;;;;;;14.13;12.70;;;;;;;;;;5281523;28;20016;-72
2023/09/12 08:31:40;;;;;;;12.77;11.55;;;;;;;;;;5279975;28;20028;-73
2023/09/12 08:34:11;;;;;;;14.07;12.77;;;;;;;;;;5281669;28;20100;-73
2023/09/12 08:36:42;;;;;;;15.57;14.03;;;;;;;;;;5279921;28;20074;-73
2023/09/12 08:39:15;;;;;;;13.95;11.73;;;;;;;;;;5281452;28;20803;-71
2023/09/12 08:41:46;;;;;;;11.95;10.73;;;;;;;;;;5280627;28;20227;-72
2023/09/12 08:44:17;;;;;;;12.57;11.37;;;;;;;;;;5280241;28;20458;-73
2023/09/12 08:46:49;;;;;;;12.63;11.55;;;;;;;;;;5280765;28;20289;-74
2023/09/12 08:49:20;;;;;;;14.50;12.45;;;;;;;;;;5268843;28;20021;-73
2023/09/12 08:51:52;;;;;;;12.93;11.73;;;;;;;;;;5260695;28;20017;-71
2023/09/12 08:54:23;;;;;;;10.68;9.63;;;;;;;;;;5265432;28;20052;-73
2023/09/12 08:56:54;;;;;;;11.20;10.13;;;;;;;;;;5267064;28;20494;-73
2023/09/12 08:59:26;;;;;;;10.52;9.43;;;;;;;;;;5262734;28;20017;-74
2023/09/12 09:01:58;;;;;;;8.75;7.95;;;;;;;;;;5272372;28;20024;-74
2023/09/12 09:04:30;;;;;;;9.70;8.73;;;;;;;;;;5283624;28;20111;-74
2023/09/12 09:07:03;;;;;;;8.48;7.40;;;;;;;;;;5283278;28;20047;-73
2023/09/12 09:09:34;;;;;;;8.68;7.80;;;;;;;;;;5282706;28;20048;-71
2023/09/12 09:12:10;;;;;;;9.50;8.60;;;;;;;;;;5283300;28;20475;-72
2023/09/12 09:14:41;;;;;;;8.00;7.20;;;;;;;;;;5282185;28;20024;-72
2023/09/12 09:17:15;;;;;;;11.10;9.90;;;;;;;;;;5284522;28;20035;-72
2023/09/12 09:19:47;;;;;;;11.88;10.18;;;;;;;;;;5283167;28;20020;-72
2023/09/12 09:22:18;;;;;;;12.38;11.18;;;;;;;;;;5283711;28;20039;-71
2023/09/12 09:24:51;;;;;;;15.47;13.60;;;;;;;;;;5283804;28;20028;-72
2023/09/12 09:27:32;;;;;;;15.73;14.00;;;;;;;;;;5283702;28;20293;-72
2023/09/12 09:30:04;;;;;;;19.88;17.80;;;;;;;;;;5284536;28;20059;-71
2023/09/12 09:32:35;;;;;;;20.65;18.58;;;;;;;;;;5283893;28;20044;-71
2023/09/12 09:35:06;;;;;;;20.05;17.98;;;;;;;;;;5283945;28;20031;-71
2023/09/12 09:37:38;;;;;;;20.83;16.52;;;;;;;;;;5284118;28;20025;-71
2023/09/12 09:40:09;;;;;;;23.45;17.25;;;;;;;;;;5283751;28;20028;-72
2023/09/12 09:42:41;;;;;;;20.45;17.02;;;;;;;;;;5279858;28;20509;-72
2023/09/12 09:45:12;;;;;;;18.33;15.50;;;;;;;;;;5284281;28;20032;-72
2023/09/12 09:47:44;;;;;;;16.05;13.35;;;;;;;;;;5283103;28;20270;-72
2023/09/12 09:50:15;;;;;;;17.10;15.13;;;;;;;;;;5284332;28;20028;-72
2023/09/12 09:52:52;;;;;;;19.10;15.68;;;;;;;;;;5269590;28;20009;-72
2023/09/12 09:55:24;;;;;;;19.42;16.90;;;;;;;;;;5266780;28;20032;-72
2023/09/12 09:57:56;;;;;;;18.20;16.20;;;;;;;;;;5279721;28;20012;-72
2023/09/12 10:00:28;;;;;;;17.90;15.00;;;;;;;;;;5283748;28;20009;-72
2023/09/12 10:03:00;;;;;;;17.55;15.73;;;;;;;;;;5281856;28;20082;-72
2023/09/12 10:05:32;;;;;;;19.20;17.20;;;;;;;;;;5283314;28;20025;-72
2023/09/12 10:08:06;;;;;;;19.40;17.38;;;;;;;;;;5282489;28;20044;-72
2023/09/12 10:10:39;;;;;;;20.75;18.38;;;;;;;;;;5281410;28;20016;-72
2023/09/12 10:13:11;;;;;;;19.55;17.55;;;;;;;;;;5283548;28;20052;-72
2023/09/12 10:15:43;;;;;;;18.40;14.77;;;;;;;;;;5282697;28;20396;-71
2023/09/12 10:18:16;;;;;;;16.75;15.05;;;;;;;;;;5284274;28;20024;-71
2023/09/12 10:20:49;;;;;;;16.17;14.57;;;;;;;;;;5283322;28;20056;-71
2023/09/12 10:23:41;;;;;;;19.52;15.35;;;;;;;;;;5279107;28;20025;-70
2023/09/12 10:26:13;;;;;;;19.75;17.13;;;;;;;;;;5283329;28;20429;-70
2023/09/12 10:28:45;;;;;;;22.42;20.10;;;;;;;;;;5282468;28;20020;-70
2023/09/12 10:31:17;;;;;;;21.35;19.15;;;;;;;;;;5282387;28;20024;-71
2023/09/12 10:33:49;;;;;;;18.65;15.88;;;;;;;;;;5282630;28;20031;-70
2023/09/12 10:36:21;;;;;;;20.17;18.08;;;;;;;;;;5281184;28;20100;-71
2023/09/12 10:38:52;;;;;;;22.60;18.55;;;;;;;;;;5282368;28;20025;-75
2023/09/12 10:41:24;;;;;;;18.45;16.48;;;;;;;;;;5282400;28;20020;-72
2023/09/12 10:43:55;;;;;;;23.83;17.40;;;;;;;;;;5282529;28;20060;-72
2023/09/12 10:46:27;;;;;;;25.25;21.92;;;;;;;;;;5283107;28;20027;-72
2023/09/12 10:48:58;;;;;;;25.83;23.30;;;;;;;;;;5282784;28;20025;-72
2023/09/12 10:51:31;;;;;;;23.88;21.33;;;;;;;;;;5281669;28;20021;-73
2023/09/12 10:54:02;;;;;;;22.38;20.02;;;;;;;;;;5283214;28;20066;-72
2023/09/12 10:56:34;;;;;;;24.42;21.83;;;;;;;;;;5282614;28;20024;-72
2023/09/12 10:59:09;;;;;;;26.85;24.13;;;;;;;;;;5282333;28;20021;-72
2023/09/12 11:01:46;;;;;;;26.10;23.33;;;;;;;;;;5282795;28;20371;-72
2023/09/12 11:04:20;;;;;;;26.63;24.00;;;;;;;;;;5282505;28;20431;-72
2023/09/12 11:06:52;;;;;;;25.95;23.27;;;;;;;;;;5282244;28;20042;-72
2023/09/12 11:09:23;;;;;;;26.48;22.88;;;;;;;;;;5282680;28;20479;-72
2023/09/12 11:12:01;;;;;;;24.13;21.60;;;;;;;;;;5281655;28;20023;-72
2023/09/12 11:14:32;;;;;;;27.67;23.17;;;;;;;;;;5282238;28;20032;-72
2023/09/12 11:17:07;;;;;;;27.17;24.35;;;;;;;;;;5282542;28;20043;-72
2023/09/12 11:19:45;;;;;;;27.40;24.45;;;;;;;;;;5281155;28;20091;-72
2023/09/12 11:22:23;;;;;;;24.35;21.92;;;;;;;;;;5282588;28;20119;-72
2023/09/12 11:24:55;;;;;;;27.25;24.40;;;;;;;;;;5282315;28;20455;-72
2023/09/12 11:27:44;;;;;;;24.75;22.08;;;;;;;;;;5281698;28;20474;-72
2023/09/12 11:30:16;;;;;;;23.73;21.20;;;;;;;;;;5282438;28;20105;-72
2023/09/12 11:32:50;;;;;;;21.60;19.40;;;;;;;;;;5281188;28;20045;-73
2023/09/12 11:35:25;;;;;;;21.05;18.85;;;;;;;;;;5282254;28;20383;-71
2023/09/12 11:37:57;;;;;;;20.98;18.85;;;;;;;;;;5282294;28;20028;-71
2023/09/12 11:40:34;;;;;;;17.77;15.88;;;;;;;;;;5281459;28;20036;-72
2023/09/12 11:43:05;;;;;;;20.83;18.63;;;;;;;;;;5282015;28;20016;-72
2023/09/12 11:45:42;;;;;;;18.43;16.60;;;;;;;;;;5281655;28;20024;-72
2023/09/12 11:48:13;;;;;;;16.33;14.65;;;;;;;;;;5281745;28;20340;-71
2023/09/12 11:50:49;;;;;;;14.93;13.40;;;;;;;;;;5281897;28;20052;-71
2023/09/12 11:53:22;;;;;;;13.60;12.27;;;;;;;;;;5282272;28;20027;-71
2023/09/12 11:55:54;;;;;;;15.88;14.25;;;;;;;;;;5280522;28;20064;-71
2023/09/12 11:58:27;;;;;;;14.73;13.27;;;;;;;;;;5281692;28;20020;-72
2023/09/12 12:00:58;;;;;;;15.07;13.30;;;;;;;;;;5281063;28;20432;-72
2023/09/12 12:03:30;;;;;;;13.13;11.80;;;;;;;;;;5281063;28;20035;-71
2023/09/12 12:06:01;;;;;;;13.33;12.03;;;;;;;;;;5281949;28;20471;-71
2023/09/12 12:08:32;;;;;;;15.10;13.63;;;;;;;;;;5280272;28;20282;-71
2023/09/12 12:11:03;;;;;;;13.82;12.43;;;;;;;;;;5281999;28;20047;-74
2023/09/12 12:13:34;;;;;;;14.95;12.85;;;;;;;;;;5281238;28;20125;-75
2023/09/12 12:16:18;;;;;;;13.77;12.47;;;;;;;;;;5281007;28;20360;-74
2023/09/12 12:18:54;;;;;;;13.65;12.25;;;;;;;;;;5281147;28;20278;-73
2023/09/12 12:21:25;;;;;;;14.38;12.95;;;;;;;;;;5281566;28;20361;-74
2023/09/12 12:24:03;;;;;;;18.30;13.27;;;;;;;;;;5280604;28;20054;-72
2023/09/12 12:26:34;;;;;;;14.37;12.30;;;;;;;;;;5280338;28;20044;-72
2023/09/12 12:29:05;;;;;;;14.00;12.67;;;;;;;;;;5280907;28;20101;-72
2023/09/12 12:31:39;;;;;;;14.33;12.10;;;;;;;;;;5281061;28;20262;-74
2023/09/12 12:34:10;;;;;;;17.88;13.25;;;;;;;;;;5281730;28;20278;-74
2023/09/12 12:36:42;;;;;;;14.85;13.35;;;;;;;;;;5280538;28;20409;-74
2023/09/12 12:39:14;;;;;;;13.60;12.30;;;;;;;;;;5281822;28;20096;-74
2023/09/12 12:41:45;;;;;;;15.82;14.23;;;;;;;;;;5280824;28;20067;-75
2023/09/12 12:44:17;;;;;;;14.97;13.57;;;;;;;;;;5280821;28;20357;-74
2023/09/12 12:46:50;;;;;;;16.02;14.55;;;;;;;;;;5280907;28;20271;-74
2023/09/12 12:49:22;;;;;;;15.57;14.07;;;;;;;;;;5281493;28;20103;-74
2023/09/12 12:51:55;;;;;;;18.52;14.68;;;;;;;;;;5280008;28;20028;-74
2023/09/12 12:54:30;;;;;;;16.23;14.52;;;;;;;;;;5281200;28;20016;-74
2023/09/12 12:57:02;;;;;;;16.75;15.05;;;;;;;;;;5280950;28;20099;-74
2023/09/12 12:59:36;;;;;;;16.77;14.63;;;;;;;;;;5280882;28;20092;-72
2023/09/12 13:02:07;;;;;;;16.00;14.40;;;;;;;;;;5281359;28;20422;-73
2023/09/12 13:04:38;;;;;;;15.03;13.57;;;;;;;;;;5279610;28;20036;-75
2023/09/12 13:07:10;;;;;;;12.32;11.13;;;;;;;;;;5281303;28;20283;-75
2023/09/12 13:09:42;;;;;;;15.27;12.93;;;;;;;;;;5280627;28;20060;-75
2023/09/12 13:12:14;;;;;;;12.70;11.15;;;;;;;;;;5280570;28;20490;-76
2023/09/12 13:14:46;;;;;;;11.93;10.57;;;;;;;;;;5280525;28;20027;-77
2023/09/12 13:17:17;;;;;;;10.35;9.43;;;;;;;;;;5281313;28;20013;-76
2023/09/12 13:19:48;;;;;;;10.32;8.90;;;;;;;;;;5280176;28;20025;-77
2023/09/12 13:22:19;;;;;;;9.97;8.77;;;;;;;;;;5277383;28;20028;-76
2023/09/12 13:24:50;;;;;;;9.70;8.80;;;;;;;;;;5280296;28;20306;-77
2023/09/12 13:27:22;;;;;;;10.27;9.27;;;;;;;;;;5280028;28;20807;-76
2023/09/12 13:29:53;;;;;;;10.23;9.20;;;;;;;;;;5280650;28;20267;-76
2023/09/12 13:32:24;;;;;;;9.20;7.77;;;;;;;;;;5279959;28;20028;-77
2023/09/12 13:34:55;;;;;;;7.07;6.47;;;;;;;;;;5280610;28;20024;-77
2023/09/12 13:37:27;;;;;;;8.77;6.10;;;;;;;;;;5282533;28;20107;-77
2023/09/12 13:39:58;;;;;;;6.78;6.20;;;;;;;;;;5282512;28;20040;-77
2023/09/12 13:42:31;;;;;;;6.00;5.28;;;;;;;;;;5282746;28;20615;-77
2023/09/12 13:45:02;;;;;;;8.02;6.40;;;;;;;;;;5283211;28;20050;-77
2023/09/12 13:47:33;;;;;;;7.18;6.47;;;;;;;;;;5283298;28;20496;-77
2023/09/12 13:50:05;;;;;;;7.30;6.60;;;;;;;;;;5284760;28;20442;-77
2023/09/12 13:52:36;;;;;;;7.78;6.30;;;;;;;;;;5283762;28;20338;-77
2023/09/12 13:55:13;;;;;;;7.20;6.50;;;;;;;;;;5283553;28;20047;-77
2023/09/12 13:57:44;;;;;;;7.28;6.05;;;;;;;;;;5283917;28;20027;-77
2023/09/12 14:00:15;;;;;;;6.70;6.10;;;;;;;;;;5283659;28;20020;-77
2023/09/12 14:02:47;;;;;;;7.28;6.57;;;;;;;;;;5283496;28;20471;-77
2023/09/12 14:05:18;;;;;;;7.43;5.93;;;;;;;;;;5283994;28;20035;-77
2023/09/12 14:07:49;;;;;;;5.72;4.85;;;;;;;;;;5282736;28;20055;-77
2023/09/12 14:10:20;;;;;;;6.25;4.90;;;;;;;;;;5284357;28;20487;-77
2023/09/12 14:12:52;;;;;;;6.33;5.70;;;;;;;;;;5283507;28;20066;-77
2023/09/12 14:15:23;;;;;;;7.43;6.10;;;;;;;;;;5283458;28;20292;-78
2023/09/12 14:17:54;;;;;;;7.22;6.63;;;;;;;;;;5283924;28;20404;-77
2023/09/12 14:20:25;;;;;;;5.73;5.20;;;;;;;;;;5283873;28;20050;-78
2023/09/12 14:22:58;;;;;;;6.70;4.57;;;;;;;;;;5282741;28;20035;-77
2023/09/12 14:25:29;;;;;;;4.47;3.88;;;;;;;;;;5283408;28;20562;-78
2023/09/12 14:28:00;;;;;;;4.78;3.83;;;;;;;;;;5283317;28;20027;-77
2023/09/12 14:30:35;;;;;;;4.70;4.17;;;;;;;;;;5279540;28;20017;-76
2023/09/12 14:33:07;;;;;;;4.85;4.35;;;;;;;;;;5281051;28;20019;-76
2023/09/12 14:35:38;;;;;;;5.77;4.40;;;;;;;;;;5281981;28;20024;-77
2023/09/12 14:38:09;;;;;;;5.47;4.30;;;;;;;;;;5283230;28;20032;-77
2023/09/12 14:40:40;;;;;;;4.88;4.45;;;;;;;;;;5282784;28;20055;-77
2023/09/12 14:43:12;;;;;;;5.22;4.72;;;;;;;;;;5280807;28;20021;-77
2023/09/12 14:45:43;;;;;;;4.53;4.22;;;;;;;;;;5281581;28;20077;-76
2023/09/12 14:48:14;;;;;;;4.73;3.97;;;;;;;;;;5282921;28;20025;-75